ADDS METAR Data

Data at: 0043 UTC 21 Nov 2017

METAR for:KLGA (New York/La Guardia, NY, US)
Text:KLGA 202351Z 24010G20KT 10SM SCT250 08/M04 A3010 RMK AO2 SLP192 T00781044 10089 20078 51015
Temperature: 7.8°C ( 46°F)
Dewpoint: -4.4°C ( 24°F) [RH = 42%]
Pressure (altimeter):30.10 inches Hg (1019.4 mb) [Sea level pressure: 1019.2 mb]
Winds:from the WSW (240 degrees) at 12 MPH (10 knots; 5.1 m/s) gusting to 23 MPH (20 knots; 10.3 m/s)
Visibility:10 or more sm (16+ km)
Ceiling:at least 12,000 feet AGL
Clouds: scattered clouds at 25000 feet AGL